Time;durP1;ratioP1;P1;durP2;ratioP2;P2;SDS_P1;SDS_P2;PMS_P1;PMS_P2;Temp;Humidity;BMP_temperature;BMP_pressure;BME280_temperature;BME280_humidity;BME280_pressure;Samples;Min_cycle;Max_cycle;Signal;HPM_P1;HPM_P2
2022/09/19 00:02:33;;;;;;;0.40;0.30;;;;;;;10.54;86.72;98724.27;1624944;87;21092;-72
2022/09/19 00:05:06;;;;;;;1.07;0.35;;;;;;;10.54;86.44;98719.63;1624656;87;21095;-71
2022/09/19 00:07:36;;;;;;;0.35;0.30;;;;;;;10.55;86.15;98713.08;1624729;87;21112;-70
2022/09/19 00:10:06;;;;;;;1.07;0.30;;;;;;;10.56;85.80;98724.33;1624519;88;21568;-70
2022/09/19 00:12:36;;;;;;;0.20;0.20;;;;;;;10.59;85.54;98731.23;1624860;87;22007;-70
2022/09/19 00:15:07;;;;;;;0.53;0.40;;;;;;;10.57;84.98;98732.02;1624694;88;21258;-72
2022/09/19 00:17:37;;;;;;;0.72;0.30;;;;;;;10.55;84.91;98732.79;1624538;88;21075;-70
2022/09/19 00:20:08;;;;;;;0.30;0.23;;;;;;;10.55;84.63;98734.16;1624712;88;21632;-71
2022/09/19 00:24:45;;;;;;;0.50;0.30;;;;;;;10.53;84.66;98737.67;1624661;87;21151;-70
2022/09/19 00:25:11;;;;;;;0.30;0.20;;;;;;;10.53;84.73;98740.41;1621324;88;21116;-71
2022/09/19 00:27:42;;;;;;;0.10;0.10;;;;;;;10.56;84.79;98741.30;1613777;88;21084;-70
2022/09/19 00:30:13;;;;;;;1.17;0.35;;;;;;;10.55;84.72;98742.38;1686596;85;21459;-70
2022/09/19 00:32:42;;;;;;;0.65;0.28;;;;;;;10.55;84.78;98732.79;1654243;85;21044;-70
2022/09/19 00:35:12;;;;;;;0.37;0.30;;;;;;;10.55;84.82;98739.09;1640266;87;21096;-70
2022/09/19 00:37:42;;;;;;;2.55;0.20;;;;;;;10.55;84.90;98734.98;1643393;87;21028;-70
2022/09/19 00:40:11;;;;;;;1.00;0.28;;;;;;;10.55;84.93;98731.42;1641856;87;21025;-68
2022/09/19 00:42:42;;;;;;;0.40;0.20;;;;;;;10.53;85.14;98735.77;1660643;85;21051;-70
2022/09/19 00:45:15;;;;;;;0.30;0.30;;;;;;;10.53;85.33;98732.19;1647063;87;21491;-70
2022/09/19 00:47:48;;;;;;;0.17;0.17;;;;;;;10.50;85.53;98732.67;1657717;86;21587;-70
2022/09/19 00:50:26;;;;;;;0.25;0.25;;;;;;;10.48;85.80;98726.89;1629880;88;21139;-70
2022/09/19 00:53:10;;;;;;;0.40;0.40;;;;;;;10.47;85.97;98732.08;1621741;87;21119;-69
2022/09/19 00:55:41;;;;;;;0.37;0.37;;;;;;;10.47;86.12;98731.23;1630394;87;21060;-71
2022/09/19 00:58:34;;;;;;;0.25;0.25;;;;;;;10.46;86.33;98740.52;1646225;87;21035;-71
2022/09/19 01:01:04;;;;;;;0.68;0.50;;;;;;;10.47;86.36;98737.55;1630190;87;21559;-72
2022/09/19 01:03:33;;;;;;;1.77;0.40;;;;;;;10.46;86.58;98735.05;1646309;87;21115;-70
2022/09/19 01:06:23;;;;;;;0.60;0.40;;;;;;;10.47;86.85;98747.67;1630449;88;21096;-69
2022/09/19 01:09:14;;;;;;;2.22;0.80;;;;;;;10.48;87.17;98738.38;1631512;88;21124;-71
2022/09/19 01:12:01;;;;;;;2.60;0.60;;;;;;;10.50;87.53;98743.09;1631616;87;22150;-71
2022/09/19 01:15:02;;;;;;;0.80;0.68;;;;;;;10.53;87.79;98754.09;1631766;87;21036;-70
2022/09/19 01:17:46;;;;;;;1.70;0.65;;;;;;;10.55;88.16;98753.33;1589209;89;21108;-70
2022/09/19 01:21:37;;;;;;;0.88;0.60;;;;;;;10.58;88.49;98749.58;1623063;87;21066;-71
2022/09/19 01:24:19;;;;;;;1.67;0.68;;;;;;;10.60;88.69;98750.17;1628182;88;21096;-71
2022/09/19 01:27:19;;;;;;;1.25;0.70;;;;;;;10.64;88.97;98758.74;1655944;86;21083;-72
2022/09/19 01:30:00;;;;;;;0.62;0.50;;;;;;;10.65;89.11;98753.03;1658458;86;21084;-70
2022/09/19 01:32:43;;;;;;;1.17;0.70;;;;;;;10.67;89.20;98755.52;1668018;84;21072;-69
2022/09/19 01:35:14;;;;;;;1.40;1.00;;;;;;;10.68;89.35;98751.72;1676218;85;21060;-70
2022/09/19 01:37:52;;;;;;;1.90;0.75;;;;;;;10.70;89.43;98757.25;1676511;85;21056;-69
2022/09/19 01:40:23;;;;;;;1.70;0.90;;;;;;;10.72;89.49;98761.95;1682884;84;21092;-70
2022/09/19 01:42:57;;;;;;;1.47;0.80;;;;;;;10.73;89.59;98759.52;1739463;82;21047;-71
2022/09/19 01:45:36;;;;;;;3.77;0.93;;;;;;;10.77;89.71;98761.23;1698573;82;21084;-70
2022/09/19 01:48:40;;;;;;;1.30;1.00;;;;;;;10.79;89.74;98767.31;1680539;85;21005;-70
2022/09/19 01:51:30;;;;;;;2.35;1.02;;;;;;;10.81;89.77;98772.02;1680415;85;21115;-68
2022/09/19 01:54:17;;;;;;;2.35;1.15;;;;;;;10.82;89.75;98771.48;1680714;85;21476;-70
2022/09/19 01:57:26;;;;;;;3.22;0.88;;;;;;;10.86;89.60;98768.02;1662369;85;21027;-70
2022/09/19 02:00:14;;;;;;;1.10;0.85;;;;;;;10.88;89.27;98780.95;1710767;84;21424;-70
2022/09/19 02:03:09;;;;;;;2.02;0.90;;;;;;;10.89;88.99;98780.41;1696200;84;21453;-71
2022/09/19 02:06:06;;;;;;;2.80;0.80;;;;;;;10.90;88.87;98782.91;1703569;84;21012;-70
2022/09/19 02:09:00;;;;;;;1.20;0.72;;;;;;;10.92;88.44;98786.24;1703624;84;21063;-71
2022/09/19 02:11:37;;;;;;;0.80;0.80;;;;;;;10.96;87.70;98787.97;1694861;82;21028;-71
2022/09/19 02:14:16;;;;;;;1.25;0.80;;;;;;;10.95;87.19;98800.83;1643731;87;21144;-71
2022/09/19 02:17:00;;;;;;;1.37;0.70;;;;;;;10.95;86.62;98804.94;1619941;88;21092;-71
2022/09/19 02:19:32;;;;;;;2.35;0.57;;;;;;;10.95;85.87;98800.83;1643544;87;21025;-70
2022/09/19 02:22:10;;;;;;;1.00;0.60;;;;;;;10.95;85.25;98793.98;1620381;88;21021;-70
2022/09/19 02:24:40;;;;;;;0.50;0.33;;;;;;;10.93;84.37;98811.20;1675542;85;21529;-70
2022/09/19 02:27:17;;;;;;;0.45;0.30;;;;;;;10.94;84.10;98807.39;1710706;84;21059;-70
2022/09/19 02:29:52;;;;;;;0.62;0.40;;;;;;;10.94;84.00;98814.77;1682409;85;21099;-71
2022/09/19 02:32:24;;;;;;;0.30;0.30;;;;;;;10.94;83.92;98805.18;1695687;84;21019;-71
2022/09/19 02:34:55;;;;;;;0.80;0.40;;;;;;;10.94;83.98;98816.98;1657699;85;21043;-71
2022/09/19 02:37:31;;;;;;;0.50;0.40;;;;;;;10.94;84.15;98823.83;1684277;85;21031;-70
2022/09/19 02:40:12;;;;;;;1.30;0.62;;;;;;;10.95;84.30;98829.61;1684584;84;21534;-70
2022/09/19 02:43:14;;;;;;;0.70;0.70;;;;;;;10.95;84.50;98836.99;1683583;84;21050;-70
2022/09/19 02:45:53;;;;;;;0.72;0.62;;;;;;;10.93;84.80;98838.60;1684320;85;21122;-70
2022/09/19 02:48:47;;;;;;;2.15;0.65;;;;;;;10.92;84.97;98838.84;1684485;85;21023;-70
2022/09/19 02:51:30;;;;;;;2.55;0.70;;;;;;;10.93;85.05;98839.14;1684205;85;21027;-71
2022/09/19 02:54:08;;;;;;;1.72;0.90;;;;;;;10.89;85.20;98851.11;1684053;84;21031;-71
2022/09/19 02:56:40;;;;;;;1.15;0.90;;;;;;;10.88;85.46;98852.18;1684623;85;21058;-72
2022/09/19 02:59:21;;;;;;;2.52;1.00;;;;;;;10.88;85.72;98863.14;1684108;85;21146;-70
2022/09/19 03:02:00;;;;;;;1.95;1.20;;;;;;;10.87;86.04;98862.84;1683928;85;21067;-71
2022/09/19 03:04:37;;;;;;;3.37;1.20;;;;;;;10.82;86.44;98859.98;1664529;84;21296;-71
2022/09/19 03:07:13;;;;;;;2.27;1.77;;;;;;;10.79;86.78;98876.36;1655267;87;21150;-70
2022/09/19 03:10:12;;;;;;;2.10;1.27;;;;;;;10.80;87.16;98873.08;1672280;85;21213;-69
2022/09/19 03:12:59;;;;;;;2.83;1.40;;;;;;;10.81;87.42;98878.86;1684570;83;21170;-70
2022/09/19 03:15:42;;;;;;;2.95;1.30;;;;;;;10.83;87.76;98882.20;1683401;84;21126;-70
2022/09/19 03:18:13;;;;;;;2.58;1.40;;;;;;;10.82;87.84;98884.64;1684571;85;21066;-71
2022/09/19 03:20:56;;;;;;;2.20;1.25;;;;;;;10.84;87.94;98880.30;1684268;84;21023;-70
2022/09/19 03:23:32;;;;;;;5.00;1.50;;;;;;;10.85;87.97;98888.27;1683485;85;21051;-71
2022/09/19 03:26:03;;;;;;;2.12;1.70;;;;;;;10.86;88.08;98897.33;1682137;84;21452;-71
2022/09/19 03:28:34;;;;;;;2.40;1.62;;;;;;;10.87;88.11;98902.57;1684177;85;21060;-70
2022/09/19 03:31:06;;;;;;;3.83;1.50;;;;;;;10.90;88.04;98902.63;1683120;85;21090;-71
2022/09/19 03:33:39;;;;;;;2.80;1.77;;;;;;;10.90;88.03;98907.58;1684212;83;21468;-70
2022/09/19 03:36:11;;;;;;;2.50;2.08;;;;;;;10.93;87.99;98919.44;1684218;84;21028;-71
2022/09/19 03:38:44;;;;;;;3.47;1.87;;;;;;;10.94;87.85;98910.68;1684353;85;21091;-70
2022/09/19 03:41:18;;;;;;;3.12;2.37;;;;;;;10.93;87.96;98923.55;1683783;85;21428;-69
2022/09/19 03:43:49;;;;;;;4.75;1.75;;;;;;;10.94;88.03;98928.49;1656552;86;21066;-69
2022/09/19 03:46:20;;;;;;;3.52;1.95;;;;;;;10.96;88.05;98931.30;1656434;86;21074;-69
2022/09/19 03:48:51;;;;;;;4.42;2.50;;;;;;;10.95;88.08;98939.22;1656744;86;20999;-70
2022/09/19 03:51:21;;;;;;;2.33;2.05;;;;;;;10.94;88.15;98948.51;1679596;85;21039;-70
2022/09/19 03:53:52;;;;;;;3.00;1.77;;;;;;;10.94;88.15;98945.77;1684314;84;21071;-69
2022/09/19 03:56:24;;;;;;;3.67;1.98;;;;;;;10.94;88.10;98943.56;1684427;85;21052;-69
2022/09/19 03:58:55;;;;;;;2.83;2.17;;;;;;;10.95;87.92;98957.03;1684206;85;21063;-69
2022/09/19 04:01:26;;;;;;;3.50;2.00;;;;;;;10.96;87.83;98966.92;1683732;84;21079;-69
2022/09/19 04:03:56;;;;;;;2.50;1.85;;;;;;;10.98;87.82;98977.11;1684344;85;21463;-68
2022/09/19 04:06:26;;;;;;;2.17;1.82;;;;;;;11.00;87.72;98970.02;1670755;85;21050;-68
2022/09/19 04:08:56;;;;;;;3.08;2.05;;;;;;;11.00;87.73;98976.34;1629658;87;21097;-69
2022/09/19 04:11:29;;;;;;;5.42;1.90;;;;;;;11.01;87.69;98986.23;1629372;87;21063;-70
2022/09/19 04:14:01;;;;;;;3.47;1.87;;;;;;;11.03;87.45;98987.36;1676498;85;20996;-71
2022/09/19 04:16:32;;;;;;;3.83;1.92;;;;;;;11.03;87.43;98994.22;1651984;84;21084;-70
2022/09/19 04:19:10;;;;;;;2.95;1.70;;;;;;;11.06;87.44;99000.63;1651328;87;21060;-70
2022/09/19 04:21:38;;;;;;;4.15;2.10;;;;;;;11.10;87.40;99001.83;1639214;87;21504;-70
2022/09/19 04:24:13;;;;;;;2.22;2.00;;;;;;;11.13;87.16;98997.78;1652617;85;21132;-70
2022/09/19 04:26:49;;;;;;;3.10;1.80;;;;;;;11.15;86.95;99009.34;1620529;88;21034;-70
2022/09/19 04:29:19;;;;;;;4.00;2.00;;;;;;;11.17;86.66;99009.95;1653910;87;21538;-69
2022/09/19 04:31:52;;;;;;;5.12;2.50;;;;;;;11.18;86.24;99018.47;1619708;88;21120;-69
2022/09/19 04:34:21;;;;;;;4.08;2.30;;;;;;;11.17;86.08;99019.55;1644857;85;21163;-70
2022/09/19 04:36:52;;;;;;;4.45;2.33;;;;;;;11.18;85.98;99037.66;1647693;86;21091;-69
2022/09/19 04:39:21;;;;;;;6.22;1.95;;;;;;;11.19;85.83;99027.00;1697917;82;21063;-70
2022/09/19 04:41:52;;;;;;;3.05;2.10;;;;;;;11.22;85.77;99034.75;1718388;82;21039;-71
2022/09/19 04:44:29;;;;;;;3.90;2.00;;;;;;;11.22;85.43;99036.95;1667282;86;21037;-71
2022/09/19 04:47:14;;;;;;;3.05;2.00;;;;;;;11.22;85.11;99034.75;1703602;84;21047;-70
2022/09/19 04:49:44;;;;;;;2.20;2.00;;;;;;;11.19;85.04;99043.45;1667224;86;21082;-72
2022/09/19 04:52:14;;;;;;;3.30;2.10;;;;;;;11.18;84.95;99053.58;1706116;84;21019;-71
2022/09/19 04:54:47;;;;;;;2.65;1.82;;;;;;;11.18;84.97;99045.34;1670193;86;21052;-71
2022/09/19 04:57:19;;;;;;;4.58;2.20;;;;;;;11.19;85.03;99045.66;1729860;82;21063;-70
2022/09/19 04:59:48;;;;;;;3.22;2.27;;;;;;;11.22;85.02;99046.55;1738908;82;21320;-70
2022/09/19 05:02:20;;;;;;;3.83;2.22;;;;;;;11.25;85.11;99056.21;1704780;84;21056;-68
2022/09/19 05:04:52;;;;;;;4.35;2.00;;;;;;;11.28;85.06;99059.32;1724022;82;21048;-69
2022/09/19 05:07:33;;;;;;;3.55;2.05;;;;;;;11.29;84.84;99058.78;1662982;86;21036;-70
2022/09/19 05:09:58;;;;;;;2.20;1.90;;;;;;;11.31;84.82;99058.84;1698568;84;21034;-70
2022/09/19 05:12:30;;;;;;;2.72;1.92;;;;;;;11.32;84.76;99080.25;1679279;84;21037;-70
2022/09/19 05:15:00;;;;;;;5.65;2.37;;;;;;;11.31;84.53;99073.09;1661260;85;21095;-71
2022/09/19 05:17:31;;;;;;;3.67;2.00;;;;;;;11.30;84.46;99085.13;1680379;85;21064;-71
2022/09/19 05:20:01;;;;;;;3.35;2.17;;;;;;;11.32;84.45;99088.47;1647592;87;21452;-69
2022/09/19 05:22:31;;;;;;;3.22;2.08;;;;;;;11.33;84.47;99081.39;1647565;86;21024;-70
2022/09/19 05:25:02;;;;;;;2.35;1.82;;;;;;;11.35;84.43;99098.44;1680527;85;21503;-69
2022/09/19 05:27:40;;;;;;;4.75;2.00;;;;;;;11.37;84.35;99108.64;1684134;82;21087;-70
2022/09/19 05:30:07;;;;;;;2.30;1.75;;;;;;;11.37;84.22;99110.55;1690463;82;21092;-71
2022/09/19 05:32:37;;;;;;;2.35;1.72;;;;;;;11.38;84.14;99105.36;1739893;82;21032;-70
2022/09/19 05:35:09;;;;;;;2.98;2.35;;;;;;;11.39;84.14;99113.89;1739362;82;21056;-69
2022/09/19 05:37:45;;;;;;;4.85;2.47;;;;;;;11.39;84.10;99126.23;1704208;84;21292;-69
2022/09/19 05:40:18;;;;;;;5.40;2.22;;;;;;;11.39;84.05;99124.86;1708866;82;21076;-70
2022/09/19 05:43:02;;;;;;;4.97;1.80;;;;;;;11.40;83.96;99128.73;1677195;84;21100;-70
2022/09/19 05:45:33;;;;;;;5.83;2.42;;;;;;;11.40;83.83;99143.82;1684112;82;21069;-69
2022/09/19 05:48:05;;;;;;;4.75;2.20;;;;;;;11.41;83.70;99148.77;1643514;87;21211;-73
2022/09/19 05:50:38;;;;;;;2.65;2.22;;;;;;;11.39;83.73;99149.00;1658394;85;21095;-70
2022/09/19 05:56:01;;;;;;;4.53;2.35;;;;;;;11.44;83.78;99157.90;1739000;82;21449;-71
2022/09/19 05:58:35;;;;;;;5.65;2.50;;;;;;;11.49;83.67;99164.05;1681879;85;21044;-72
2022/09/19 06:01:06;;;;;;;2.52;2.27;;;;;;;11.47;83.09;99169.78;1682167;85;21091;-71
2022/09/19 06:03:38;;;;;;;3.52;2.22;;;;;;;11.43;83.22;99172.16;1681732;84;21449;-73
2022/09/19 06:06:13;;;;;;;4.08;2.75;;;;;;;11.43;83.44;99176.80;1680660;85;21061;-72
2022/09/19 06:08:46;;;;;;;3.15;2.40;;;;;;;11.46;83.65;99187.30;1686759;82;21123;-71
2022/09/19 06:11:19;;;;;;;5.37;2.70;;;;;;;11.50;83.62;99192.63;1719046;82;21071;-72
2022/09/19 06:16:41;;;;;;;5.90;3.72;;;;;;;11.54;83.69;99196.58;1625780;88;21083;-71
2022/09/19 06:19:26;;;;;;;6.25;3.17;;;;;;;11.58;83.78;99206.55;1625712;88;21606;-72
2022/09/19 06:22:11;;;;;;;5.65;2.98;;;;;;;11.59;83.70;99209.05;1553754;90;21104;-73
2022/09/19 06:24:42;;;;;;;5.12;3.47;;;;;;;11.62;83.73;99216.81;1599845;88;21064;-74
2022/09/19 06:27:14;;;;;;;6.17;3.00;;;;;;;11.65;83.36;99216.34;1574611;91;21059;-71
2022/09/19 06:29:46;;;;;;;4.87;2.83;;;;;;;11.66;83.34;99213.07;1655801;86;21051;-72
2022/09/19 06:32:33;;;;;;;4.45;2.60;;;;;;;11.67;83.42;99226.55;1624796;88;21079;-72
2022/09/19 06:35:18;;;;;;;3.33;2.22;;;;;;;11.74;83.38;99225.95;1679292;84;21044;-71
2022/09/19 06:37:49;;;;;;;5.20;2.72;;;;;;;11.82;83.24;99237.16;1740228;82;21020;-70
2022/09/19 06:40:24;;;;;;;4.47;2.65;;;;;;;11.91;83.18;99246.73;1739827;82;21074;-71
2022/09/19 06:43:03;;;;;;;3.98;2.80;;;;;;;11.99;82.38;99238.70;1739009;82;21035;-72
2022/09/19 06:45:37;;;;;;;5.35;2.67;;;;;;;12.03;81.62;99250.34;1673571;84;21037;-70
2022/09/19 06:48:27;;;;;;;3.90;2.55;;;;;;;12.09;81.66;99251.31;1709850;82;20996;-71
2022/09/19 06:50:59;;;;;;;4.25;2.62;;;;;;;12.17;81.04;99246.84;1704090;84;21108;-72
2022/09/19 06:53:31;;;;;;;4.45;2.58;;;;;;;12.24;80.64;99242.62;1740063;82;21047;-72
2022/09/19 06:56:03;;;;;;;4.42;2.30;;;;;;;12.30;80.08;99258.15;1704671;84;21056;-72
2022/09/19 06:58:34;;;;;;;4.10;2.30;;;;;;;12.34;79.54;99256.06;1739829;82;21064;-71
2022/09/19 07:01:04;;;;;;;5.83;1.90;;;;;;;12.41;79.22;99262.02;1739678;82;20984;-71
2022/09/19 07:03:36;;;;;;;4.53;2.00;;;;;;;12.47;79.05;99275.64;1739502;82;21074;-71
2022/09/19 07:06:07;;;;;;;7.55;3.60;;;;;;;12.56;78.38;99253.59;1733047;82;21067;-72
2022/09/19 07:08:39;;;;;;;4.83;2.47;;;;;;;12.62;78.02;99269.13;1647825;86;21186;-71
2022/09/19 07:11:12;;;;;;;3.17;2.30;;;;;;;12.70;77.62;99272.06;1663994;85;21024;-71
2022/09/19 07:13:44;;;;;;;5.17;1.90;;;;;;;12.73;77.01;99278.45;1710446;82;21059;-70
2022/09/19 07:16:15;;;;;;;2.50;1.60;;;;;;;12.73;76.72;99288.07;1707222;82;21076;-71
2022/09/19 07:18:47;;;;;;;2.83;1.95;;;;;;;12.72;76.59;99282.81;1667570;86;21060;-71
2022/09/19 07:21:35;;;;;;;2.33;2.10;;;;;;;12.69;76.54;99293.20;1703589;84;21103;-70
2022/09/19 07:24:08;;;;;;;3.55;1.70;;;;;;;12.72;76.20;99288.31;1667133;86;21063;-71
2022/09/19 07:27:00;;;;;;;1.98;1.50;;;;;;;12.75;76.22;99289.20;1732883;82;21056;-72
2022/09/19 07:29:31;;;;;;;3.90;1.85;;;;;;;12.79;75.73;99284.36;1721604;82;21048;-71
2022/09/19 07:32:02;;;;;;;3.17;1.87;;;;;;;12.87;75.43;99302.41;1739770;82;21051;-71
2022/09/19 07:34:34;;;;;;;2.75;1.85;;;;;;;12.92;74.93;99301.16;1708814;84;21027;-71
2022/09/19 07:37:11;;;;;;;2.50;2.10;;;;;;;12.95;74.87;99301.51;1695599;84;21521;-70
2022/09/19 07:39:41;;;;;;;3.77;2.45;;;;;;;12.96;74.09;99303.19;1682402;85;21072;-72
2022/09/19 07:42:23;;;;;;;3.75;1.80;;;;;;;12.93;74.34;99308.33;1680577;84;21418;-72
2022/09/19 07:44:58;;;;;;;2.40;1.90;;;;;;;12.92;73.91;99308.86;1621207;85;21032;-71
2022/09/19 07:47:46;;;;;;;2.30;1.98;;;;;;;12.86;73.70;99322.19;1653008;87;21071;-69
2022/09/19 07:50:29;;;;;;;3.02;1.90;;;;;;;12.79;74.30;99328.88;1658573;84;21136;-71
2022/09/19 07:53:07;;;;;;;2.67;1.95;;;;;;;12.75;74.66;99331.27;1667653;86;21033;-70
2022/09/19 07:55:38;;;;;;;4.60;2.30;;;;;;;12.70;74.51;99335.27;1667798;86;21457;-71
2022/09/19 07:58:11;;;;;;;5.65;2.25;;;;;;;12.64;74.57;99337.05;1667862;86;21083;-72
2022/09/19 08:00:48;;;;;;;3.60;2.30;;;;;;;12.61;74.59;99345.77;1693160;84;20966;-72
2022/09/19 08:03:28;;;;;;;4.50;2.45;;;;;;;12.59;74.44;99352.58;1641137;87;21028;-68
2022/09/19 08:06:02;;;;;;;3.80;2.10;;;;;;;12.55;74.62;99354.13;1664258;84;21041;-72
2022/09/19 08:08:34;;;;;;;3.87;2.12;;;;;;;12.55;74.66;99355.50;1654996;87;21068;-72
2022/09/19 08:11:06;;;;;;;2.70;2.10;;;;;;;12.54;74.48;99366.19;1629239;84;21452;-67
2022/09/19 08:13:38;;;;;;;5.87;2.00;;;;;;;12.54;74.83;99362.07;1689826;84;21039;-73
2022/09/19 08:16:09;;;;;;;4.00;2.12;;;;;;;12.56;74.91;99365.42;1687345;84;21075;-72
2022/09/19 08:18:41;;;;;;;4.20;2.02;;;;;;;12.59;74.88;99367.70;1699578;84;21032;-72
2022/09/19 08:21:14;;;;;;;4.40;2.55;;;;;;;12.62;74.80;99376.84;1670284;84;21535;-72
2022/09/19 08:23:45;;;;;;;5.28;2.70;;;;;;;12.68;74.90;99380.02;1682289;85;21100;-73
2022/09/19 08:26:15;;;;;;;4.80;2.17;;;;;;;12.74;74.06;99384.56;1712231;84;21103;-73
2022/09/19 08:28:51;;;;;;;5.37;2.12;;;;;;;12.75;73.67;99379.38;1695773;84;21013;-73
2022/09/19 08:31:24;;;;;;;6.05;2.75;;;;;;;12.74;73.59;99370.83;1680530;85;21087;-72
2022/09/19 08:33:56;;;;;;;10.03;2.65;;;;;;;12.77;73.84;99378.59;1683643;83;21491;-73
2022/09/19 08:36:26;;;;;;;7.37;2.85;;;;;;;12.80;73.55;99379.50;1698173;84;21044;-73
2022/09/19 08:38:56;;;;;;;4.50;2.30;;;;;;;12.83;73.05;99376.27;1679892;85;21428;-72
2022/09/19 08:41:44;;;;;;;4.92;2.50;;;;;;;12.86;72.68;99384.05;1684507;85;21083;-71
2022/09/19 08:44:31;;;;;;;7.30;2.55;;;;;;;12.88;72.13;99383.27;1698917;84;21047;-72
2022/09/19 08:47:10;;;;;;;4.85;2.02;;;;;;;12.89;72.27;99378.61;1656465;85;21071;-72
2022/09/19 08:50:07;;;;;;;3.37;2.20;;;;;;;12.94;71.80;99382.31;1656768;85;20999;-72
2022/09/19 08:52:47;;;;;;;;;;;;;;;12.99;71.78;99394.81;1683718;85;21075;-71
2022/09/19 08:55:25;;;;;;;4.00;2.30;;;;;;;13.09;71.68;99397.54;1672278;84;20237;-73
2022/09/19 08:58:02;;;;;;;5.87;2.30;;;;;;;13.16;71.39;99406.51;1668022;86;21050;-74
2022/09/19 09:00:42;;;;;;;6.28;2.77;;;;;;;13.20;70.63;99408.58;1670442;85;21064;-74
2022/09/19 09:03:22;;;;;;;3.65;2.20;;;;;;;13.23;70.37;99408.09;1683144;85;21008;-73
2022/09/19 09:06:22;;;;;;;7.05;2.58;;;;;;;13.28;70.56;99407.37;1622067;88;21039;-75
2022/09/19 09:09:30;;;;;;;4.40;2.00;;;;;;;13.37;70.23;99407.31;1621959;88;22107;-74
2022/09/19 09:12:26;;;;;;;5.05;2.10;;;;;;;13.44;69.37;99410.78;1653805;86;21055;-77
2022/09/19 09:15:28;;;;;;;5.75;1.70;;;;;;;13.51;67.77;99411.48;1640861;87;21157;-74
2022/09/19 09:18:14;;;;;;;5.87;2.20;;;;;;;13.55;67.42;99423.69;1625069;87;21094;-71
2022/09/19 09:21:18;;;;;;;4.65;2.10;;;;;;;13.60;67.11;99418.83;1653012;86;21039;-73
2022/09/19 09:23:54;;;;;;;3.85;2.17;;;;;;;13.59;66.72;99427.63;1608105;87;21104;-74
2022/09/19 09:26:31;;;;;;;3.95;2.47;;;;;;;13.61;66.60;99432.89;1641677;85;21074;-74
2022/09/19 09:29:25;;;;;;;4.20;2.10;;;;;;;13.59;66.80;99435.05;1684386;85;21090;-73
2022/09/19 09:32:15;;;;;;;3.20;1.72;;;;;;;13.59;66.84;99444.15;1646775;86;21038;-69
2022/09/19 09:35:12;;;;;;;5.17;2.08;;;;;;;13.59;66.89;99451.02;1673699;84;21096;-74
2022/09/19 09:37:54;;;;;;;6.15;2.15;;;;;;;13.60;66.83;99445.82;1622735;87;21238;-73
2022/09/19 09:43:20;;;;;;;4.53;2.50;;;;;;;13.62;66.77;99453.30;1637536;87;21048;-74
2022/09/19 09:45:52;;;;;;;5.08;2.60;;;;;;;13.67;66.69;99459.48;1663154;85;21087;-73
2022/09/19 09:48:34;;;;;;;5.50;2.50;;;;;;;13.73;66.08;99450.80;1670179;86;22098;-72
2022/09/19 09:51:38;;;;;;;5.10;2.60;;;;;;;13.80;66.19;99448.22;1669220;84;21047;-71
2022/09/19 09:57:33;;;;;;;5.35;2.50;;;;;;;14.14;66.17;99451.13;1634257;86;21063;-74
2022/09/19 10:03:49;;;;;;;4.62;2.30;;;;;;;14.36;64.50;99456.84;1642792;86;21075;-74
2022/09/19 10:06:42;;;;;;;3.62;2.20;;;;;;;14.43;64.32;99456.18;1642315;87;21051;-73
2022/09/19 10:09:17;;;;;;;6.03;2.20;;;;;;;14.57;63.77;99465.83;1635898;87;21490;-74
2022/09/19 10:12:09;;;;;;;4.42;2.42;;;;;;;14.66;61.54;99458.83;1649644;86;21086;-73
2022/09/19 10:14:41;;;;;;;3.72;2.10;;;;;;;14.72;61.56;99471.62;1654520;86;21027;-74
2022/09/19 10:17:12;;;;;;;5.17;2.10;;;;;;;14.75;61.45;99475.81;1642294;86;21088;-73
2022/09/19 10:19:46;;;;;;;2.55;1.70;;;;;;;14.76;61.29;99487.97;1632542;86;21042;-74
2022/09/19 10:22:17;;;;;;;5.47;2.25;;;;;;;14.76;61.13;99482.45;1675956;85;21051;-74
2022/09/19 10:24:58;;;;;;;3.33;1.77;;;;;;;14.76;60.78;99483.83;1656442;86;21071;-75
2022/09/19 10:27:38;;;;;;;6.10;2.02;;;;;;;14.72;60.17;99485.41;1658212;86;21538;-73
2022/09/19 10:30:27;;;;;;;3.85;1.80;;;;;;;14.68;59.93;99491.13;1668232;86;21154;-74
2022/09/19 10:33:02;;;;;;;5.78;2.00;;;;;;;14.65;59.89;99501.81;1657870;86;21078;-73
2022/09/19 10:35:40;;;;;;;3.27;1.90;;;;;;;14.64;60.16;99500.98;1609666;85;21118;-74
2022/09/19 10:38:17;;;;;;;3.05;1.75;;;;;;;14.68;59.10;99493.88;1719902;83;21027;-75
2022/09/19 10:41:00;;;;;;;6.75;2.00;;;;;;;14.74;58.92;99505.30;1720138;83;21000;-75
2022/09/19 10:43:48;;;;;;;4.30;1.98;;;;;;;14.80;58.81;99493.83;1718998;82;21494;-75
2022/09/19 10:46:25;;;;;;;;;;;;;;;14.85;58.61;99495.30;1695569;83;21508;-73
2022/09/19 10:48:56;;;;;;;5.33;2.00;;;;;;;14.93;58.41;99502.33;1716055;82;20257;-73
2022/09/19 10:51:36;;;;;;;5.97;2.17;;;;;;;14.97;58.12;99505.77;1720797;82;21055;-74
2022/09/19 10:54:11;;;;;;;7.97;2.20;;;;;;;15.04;57.77;99506.98;1720304;83;21487;-73
2022/09/19 10:56:41;;;;;;;6.70;2.40;;;;;;;15.11;57.61;99507.11;1720138;83;21055;-73
2022/09/19 10:59:25;;;;;;;3.50;1.90;;;;;;;15.19;57.13;99515.53;1719982;82;21491;-74
2022/09/19 11:02:27;;;;;;;8.23;2.42;;;;;;;15.26;56.00;99513.44;1717174;82;21079;-74
2022/09/19 11:05:02;;;;;;;3.98;1.62;;;;;;;15.37;56.07;99527.70;1720253;83;21039;-74
2022/09/19 11:07:54;;;;;;;7.12;1.70;;;;;;;15.46;54.85;99531.72;1720034;83;21047;-73
2022/09/19 11:10:40;;;;;;;5.58;1.82;;;;;;;15.54;54.29;99529.92;1720134;83;21095;-74
2022/09/19 11:13:23;;;;;;;2.58;1.65;;;;;;;15.58;53.91;99527.53;1715884;82;21211;-74
2022/09/19 11:16:23;;;;;;;3.25;1.47;;;;;;;15.59;53.97;99537.48;1702372;84;21086;-74
2022/09/19 11:19:13;;;;;;;8.13;4.65;;;;;;;15.62;53.96;99538.39;1749906;82;21060;-74
2022/09/19 11:22:17;;;;;;;4.58;2.08;;;;;;;15.67;53.70;99550.91;1734194;82;21093;-74
2022/09/19 11:25:27;;;;;;;3.20;1.98;;;;;;;15.69;53.22;99550.65;1701815;84;21027;-74
2022/09/19 11:28:18;;;;;;;6.55;2.00;;;;;;;15.67;53.22;99543.16;1695612;84;21509;-75
2022/09/19 11:31:33;;;;;;;4.17;1.60;;;;;;;15.65;53.42;99557.77;1653404;84;21491;-75
2022/09/19 11:34:36;;;;;;;5.53;2.10;;;;;;;15.62;53.57;99565.17;1682749;85;21466;-74
2022/09/19 11:37:32;;;;;;;5.08;2.10;;;;;;;15.59;52.85;99568.41;1672095;84;21060;-75
2022/09/19 11:40:21;;;;;;;5.15;1.80;;;;;;;15.55;53.15;99567.48;1696781;84;21067;-73
2022/09/19 11:42:56;;;;;;;3.45;1.60;;;;;;;15.51;53.05;99569.08;1713819;83;21103;-73
2022/09/19 11:45:34;;;;;;;4.33;1.30;;;;;;;15.48;52.84;99572.34;1750044;82;21463;-75
2022/09/19 11:48:32;;;;;;;4.97;1.50;;;;;;;15.38;52.60;99580.45;1750291;82;21039;-73
2022/09/19 11:51:11;;;;;;;4.35;1.67;;;;;;;15.28;52.67;99578.88;1750004;82;21019;-74
2022/09/19 11:54:02;;;;;;;5.15;1.52;;;;;;;15.19;53.27;99577.61;1750055;82;21482;-74
2022/09/19 11:56:39;;;;;;;3.47;1.75;;;;;;;15.16;53.68;99585.02;1748237;82;21482;-73
2022/09/19 12:00:00;;;;;;;4.47;1.70;;;;;;;15.13;53.80;99590.48;1742714;82;21511;-71
2022/09/19 12:02:58;;;;;;;4.87;2.40;;;;;;;15.09;54.11;99583.78;1717244;82;21067;-74
2022/09/19 12:05:59;;;;;;;3.47;1.90;;;;;;;15.07;54.49;99583.73;1691769;83;21133;-75
2022/09/19 12:09:06;;;;;;;8.30;3.30;;;;;;;15.07;54.89;99575.45;1720208;82;21039;-74
2022/09/19 12:11:50;;;;;;;3.47;2.20;;;;;;;15.11;54.58;99579.39;1720078;83;21003;-76
2022/09/19 12:14:39;;;;;;;3.85;1.57;;;;;;;15.15;54.45;99576.44;1685634;85;21055;-75
2022/09/19 12:17:18;;;;;;;3.00;1.40;;;;;;;15.22;54.57;99588.16;1720263;83;21063;-73
2022/09/19 12:19:53;;;;;;;3.65;1.50;;;;;;;15.28;53.58;99580.27;1691819;83;21075;-74
2022/09/19 12:22:27;;;;;;;4.30;1.50;;;;;;;15.30;53.04;99580.02;1696642;82;21062;-74
2022/09/19 12:25:17;;;;;;;3.25;1.30;;;;;;;15.31;53.20;99578.39;1749856;82;21031;-74
2022/09/19 12:27:54;;;;;;;3.80;1.57;;;;;;;15.38;53.47;99579.61;1750287;82;21020;-73
2022/09/19 12:30:24;;;;;;;3.65;1.40;;;;;;;15.46;53.47;99582.80;1714183;83;21036;-74
2022/09/19 12:33:24;;;;;;;3.87;1.40;;;;;;;15.50;52.85;99585.89;1749413;82;21023;-73
2022/09/19 12:36:05;;;;;;;2.10;1.42;;;;;;;15.49;52.65;99586.98;1687162;85;21495;-75
2022/09/19 12:38:44;;;;;;;4.92;1.70;;;;;;;15.46;53.09;99584.72;1665206;84;21502;-72
2022/09/19 12:41:40;;;;;;;4.28;1.60;;;;;;;15.43;52.85;99591.58;1710371;82;21082;-74
2022/09/19 12:44:41;;;;;;;5.87;1.45;;;;;;;15.41;53.11;99595.13;1711259;84;21012;-73
2022/09/19 12:47:24;;;;;;;3.17;1.20;;;;;;;15.41;53.03;99584.09;1712109;84;21071;-74